CheckWX is a tool to help pilots better visualize weather data.  It is not intended as a substitute for an official pre-flight weather briefing.

23:52:31 UTC

KSBA TAF
Santa Barbara Municipal Airport
Santa Barbara, California, USA
KSBA 222340Z 2300/2324 13005KT P6SM FEW050 FM230200 VRB03KT P6SM SCT200 FM232000 26008KT P6SM SCT200

Nov-23@
00:00 UTC

Nov-23 @ 00:00 UTC

Nov-23@
02:00 UTC

Nov-23 @ 02:00 UTC

KSBA 222340Z 2300/2324 13005KT P6SM FEW050
Wind
  • 130° at 5 KTS
Cloud Levels
  • Few at 5,000' AGL

Nov-23@
02:00 UTC

Nov-23 @ 02:00 UTC

Nov-23@
20:00 UTC

Nov-23 @ 20:00 UTC

FM230200 VRB03KT P6SM SCT200

From

From Standard forecast or significant change

Wind
  • Variable at 3 KTS
Cloud Levels
  • Scattered at 20,000' AGL

Nov-23@
20:00 UTC

Nov-23 @ 20:00 UTC

Nov-24@
00:00 UTC

Nov-24 @ 00:00 UTC

FM232000 26008KT P6SM SCT200

From

From Standard forecast or significant change

Wind
  • 260° at 8 KTS
Cloud Levels
  • Scattered at 20,000' AGL